createdAt,value
2022-09-22T09:32:06.558Z,25696.00
2022-09-22T09:33:06.553Z,26528.00
2022-09-22T09:34:06.567Z,25312.00
2022-09-22T09:35:06.604Z,25376.00
2022-09-22T09:36:06.634Z,25024.00
2022-09-22T09:37:06.606Z,24864.00
2022-09-22T09:38:06.608Z,25504.00
2022-09-22T09:39:06.712Z,28320.00
2022-09-22T09:40:06.670Z,27968.00
2022-09-22T09:41:06.655Z,27904.00
2022-09-22T09:42:06.658Z,27296.00
2022-09-22T09:43:06.673Z,26464.00
2022-09-22T09:44:06.690Z,26112.00
2022-09-22T09:45:06.697Z,26080.00
2022-09-22T09:46:06.755Z,27168.00
2022-09-22T09:47:06.729Z,27296.00
2022-09-22T09:48:06.763Z,27904.00
2022-09-22T09:49:06.748Z,28928.00
2022-09-22T09:50:06.759Z,28640.00
2022-09-22T09:51:06.786Z,31072.00
2022-09-22T09:52:06.784Z,32704.00
2022-09-22T09:53:08.692Z,31008.00
2022-09-22T09:54:06.979Z,30496.00
2022-09-22T09:55:06.831Z,31168.00
2022-09-22T09:56:06.838Z,31200.00
2022-09-22T09:57:06.855Z,31680.00
2022-09-22T09:58:06.871Z,32928.00
2022-09-22T09:59:07.009Z,34464.00
2022-09-22T10:00:06.890Z,41120.00
2022-09-22T10:01:06.908Z,34400.00
2022-09-22T10:02:06.922Z,34080.00
2022-09-22T10:03:06.933Z,36224.00
2022-09-22T10:04:06.962Z,40160.00
2022-09-22T10:05:06.961Z,37472.00
2022-09-22T10:06:06.982Z,37600.00
2022-09-22T10:07:06.987Z,37760.00
2022-09-22T10:08:06.997Z,35744.00
2022-09-22T10:09:07.044Z,42272.00
2022-09-22T10:10:07.028Z,33856.00
2022-09-22T10:11:07.036Z,34016.00
2022-09-22T10:12:07.066Z,33728.00
2022-09-22T10:13:07.071Z,33696.00
2022-09-22T10:14:07.084Z,34752.00
2022-09-22T10:15:07.091Z,35744.00
2022-09-22T10:16:07.275Z,35136.00
2022-09-22T10:17:07.131Z,36288.00
2022-09-22T10:18:07.140Z,33568.00
2022-09-22T10:19:07.148Z,33024.00
2022-09-22T10:20:07.180Z,32768.00
2022-09-22T10:21:07.203Z,33024.00
2022-09-22T10:22:07.196Z,33632.00
2022-09-22T10:23:07.258Z,89344.00
2022-09-22T10:24:07.284Z,43360.00
2022-09-22T10:25:07.240Z,37760.00
2022-09-22T10:26:10.069Z,35808.00
2022-09-22T10:27:07.621Z,35424.00
2022-09-22T10:28:07.283Z,36224.00
2022-09-22T10:29:07.288Z,34464.00
2022-09-22T16:10:06.301Z,2484.00
2022-09-22T16:11:06.290Z,2428.00
2022-09-22T16:12:06.300Z,2372.00
2022-09-22T16:13:06.308Z,2324.00
2022-09-22T16:14:06.324Z,2276.00
2022-09-22T16:15:06.346Z,2228.00
2022-09-22T16:16:06.386Z,2188.00
2022-09-22T16:17:06.361Z,2152.00
2022-09-22T16:18:06.373Z,2116.00
2022-09-22T16:19:06.387Z,2080.00
2022-09-22T16:20:06.399Z,2048.00
2022-09-22T16:21:06.415Z,2012.00
2022-09-22T16:22:06.423Z,1980.00
2022-09-22T16:23:06.440Z,1944.00
2022-09-22T16:24:06.721Z,1916.00
2022-09-22T16:25:06.469Z,1880.00
2022-09-22T16:26:06.499Z,1848.00
2022-09-22T16:28:29.125Z,1752.00
2022-09-22T16:29:29.128Z,1720.00
2022-09-22T16:30:29.147Z,1680.00
2022-09-22T16:31:29.204Z,1644.00
2022-09-22T16:32:29.164Z,1608.00
2022-09-22T16:33:29.185Z,1572.00
2022-09-22T16:34:29.195Z,1532.00
2022-09-22T16:36:54.462Z,1452.00
2022-09-22T16:37:51.851Z,1420.00
2022-09-22T16:38:51.854Z,1376.00
2022-09-22T16:39:51.876Z,1332.00
2022-09-22T16:40:51.883Z,1284.00
2022-09-22T16:41:51.911Z,1232.00
2022-09-22T16:42:51.901Z,1184.00
2022-09-22T16:43:51.918Z,1136.00
2022-09-22T16:44:51.925Z,1100.00
2022-09-22T16:45:51.943Z,1064.00
2022-09-22T16:46:51.997Z,1028.00
2022-09-22T16:47:51.959Z,988.00
2022-09-22T16:48:51.979Z,948.00
2022-09-22T16:49:54.768Z,908.00
2022-09-22T17:18:04.372Z,104.00
2022-09-22T17:19:04.363Z,92.00
2022-09-22T17:20:04.441Z,80.00
2022-09-22T17:21:04.374Z,72.00
2022-09-22T17:22:04.396Z,60.00
2022-09-22T17:24:06.988Z,44.00
